createdAt,value
2023-04-14T00:03:07.763Z,8.67
2023-04-14T00:06:09.339Z,8.63
2023-04-14T00:09:10.353Z,8.61
2023-04-14T00:12:10.415Z,8.57
2023-04-14T00:15:10.374Z,8.50
2023-04-14T00:18:13.386Z,8.45
2023-04-14T00:21:13.650Z,8.43
2023-04-14T00:24:14.342Z,8.42
2023-04-14T00:27:14.398Z,8.42
2023-04-14T00:30:19.583Z,8.42
2023-04-14T00:33:21.368Z,8.41
2023-04-14T00:36:21.402Z,8.35
2023-04-14T00:39:21.405Z,8.30
2023-04-14T00:42:21.468Z,8.28
2023-04-14T00:45:23.374Z,8.25
2023-04-14T00:48:23.392Z,8.28
2023-04-14T00:51:23.427Z,8.29
2023-04-14T00:54:23.400Z,8.29
2023-04-14T00:57:23.459Z,8.26
2023-04-14T01:00:23.490Z,8.25
2023-04-14T01:03:24.991Z,8.19
2023-04-14T01:06:26.449Z,8.14
2023-04-14T01:09:27.506Z,8.09
2023-04-14T01:12:38.456Z,8.09
2023-04-14T01:15:48.504Z,8.10
2023-04-14T01:18:49.462Z,8.09
2023-04-14T01:21:51.504Z,8.08
2023-04-14T01:24:58.479Z,8.04
2023-04-14T01:28:16.479Z,7.99
2023-04-14T01:31:26.566Z,7.99
2023-04-14T01:34:27.591Z,8.01
2023-04-14T01:37:27.475Z,8.00
2023-04-14T01:40:27.571Z,7.99
2023-04-14T01:43:28.536Z,7.97
2023-04-14T01:46:33.565Z,7.96
2023-04-14T01:49:34.576Z,7.97
2023-04-14T01:52:36.591Z,7.96
2023-04-14T01:55:36.541Z,7.93
2023-04-14T01:58:37.517Z,7.91
2023-04-14T02:01:38.672Z,7.88
2023-04-14T02:04:39.548Z,7.84
2023-04-14T02:07:40.533Z,7.82
2023-04-14T02:10:41.711Z,7.83
2023-04-14T02:13:45.567Z,7.79
2023-04-14T02:16:47.588Z,7.76
2023-04-14T02:19:47.645Z,7.73
2023-04-14T02:22:48.590Z,7.70
2023-04-14T02:25:48.572Z,7.67
2023-04-14T02:28:51.603Z,7.64
2023-04-14T02:31:58.569Z,7.60
2023-04-14T02:35:05.610Z,7.57
2023-04-14T02:38:12.592Z,7.55
2023-04-14T02:41:12.660Z,7.53
2023-04-14T02:44:25.627Z,7.54
2023-04-14T02:47:26.715Z,7.55
2023-04-14T02:50:26.603Z,7.56
2023-04-14T02:53:33.613Z,7.54
2023-04-14T02:56:39.619Z,7.52
2023-04-14T02:59:40.726Z,7.51
2023-04-14T03:02:42.755Z,7.49
2023-04-14T03:05:43.732Z,7.50
2023-04-14T03:08:43.769Z,7.49
2023-04-14T03:11:44.689Z,7.50
2023-04-14T03:14:45.700Z,7.52
2023-04-14T03:17:45.695Z,7.54
2023-04-14T03:20:47.666Z,7.52
2023-04-14T03:23:47.701Z,7.50
2023-04-14T03:26:49.717Z,7.49
2023-04-14T03:29:51.705Z,7.47
2023-04-14T03:32:54.799Z,7.49
2023-04-14T03:35:56.679Z,7.52
2023-04-14T03:38:56.735Z,7.53
2023-04-14T03:42:00.918Z,7.52
2023-04-14T03:45:01.789Z,7.52
2023-04-14T03:48:03.814Z,7.52
2023-04-14T03:51:04.708Z,7.53
2023-04-14T03:54:04.729Z,7.51
2023-04-14T03:57:04.805Z,7.52
2023-04-14T04:00:05.799Z,7.51
2023-04-14T04:03:24.976Z,7.50
2023-04-14T04:06:25.783Z,7.48
2023-04-14T04:09:25.779Z,7.47
2023-04-14T04:12:25.785Z,7.43
2023-04-14T04:15:30.774Z,7.41
2023-04-14T04:18:38.876Z,7.39
2023-04-14T04:21:38.755Z,7.38
2023-04-14T04:24:39.808Z,7.40
2023-04-14T04:27:42.858Z,7.42
2023-04-14T04:30:43.806Z,7.43
2023-04-14T04:33:45.786Z,7.42
2023-04-14T04:36:45.890Z,7.41
2023-04-14T04:39:45.827Z,7.40
2023-04-14T04:42:45.831Z,7.38
2023-04-14T04:45:54.862Z,7.39
2023-04-14T04:48:55.807Z,7.42
2023-04-14T04:51:58.866Z,7.46
2023-04-14T04:54:58.868Z,7.52
2023-04-14T04:57:59.091Z,7.57
2023-04-14T05:00:59.938Z,7.62
2023-04-14T05:04:02.044Z,7.66
2023-04-14T05:07:01.907Z,7.68
2023-04-14T05:10:03.024Z,7.68
2023-04-14T05:13:03.895Z,7.68
2023-04-14T05:16:04.017Z,7.68
2023-04-14T05:19:05.883Z,7.67
2023-04-14T05:22:06.957Z,7.68
2023-04-14T05:25:07.882Z,7.67
2023-04-14T05:28:20.856Z,7.73
2023-04-14T05:31:22.150Z,7.77
2023-04-14T05:34:21.923Z,7.80
2023-04-14T05:37:22.980Z,7.83
2023-04-14T05:40:22.883Z,7.87
2023-04-14T05:43:22.913Z,7.89
2023-04-14T05:46:22.950Z,7.91
2023-04-14T05:49:23.932Z,7.92
2023-04-14T05:52:23.980Z,7.91
2023-04-14T05:55:26.950Z,7.89
2023-04-14T05:58:26.976Z,7.85
2023-04-14T06:01:29.951Z,7.83
2023-04-14T06:04:33.052Z,7.83
2023-04-14T06:07:32.984Z,7.85
2023-04-14T06:10:37.938Z,7.86
2023-04-14T06:13:38.077Z,7.86
2023-04-14T06:16:38.146Z,7.87
2023-04-14T06:19:38.266Z,7.81
2023-04-14T06:22:40.046Z,7.83
2023-04-14T06:25:42.021Z,7.88
2023-04-14T06:28:58.093Z,7.97
2023-04-14T06:31:59.135Z,8.06
2023-04-14T06:35:00.003Z,8.12
2023-04-14T06:38:01.006Z,8.15
2023-04-14T06:41:01.057Z,8.17
2023-04-14T06:44:02.052Z,8.22
2023-04-14T06:47:04.077Z,8.27
2023-04-14T06:50:05.056Z,8.32
2023-04-14T06:53:06.088Z,8.38
2023-04-14T06:56:06.016Z,8.41
2023-04-14T06:59:09.094Z,8.42
2023-04-14T07:02:09.145Z,8.42
2023-04-14T07:05:09.241Z,8.38
2023-04-14T07:08:12.038Z,8.39
2023-04-14T07:11:12.098Z,8.39
2023-04-14T07:14:13.054Z,8.45
2023-04-14T07:17:17.128Z,8.49
2023-04-14T07:20:19.615Z,8.52
2023-04-14T07:23:20.204Z,8.53
2023-04-14T07:26:20.162Z,8.61
2023-04-14T07:29:20.207Z,8.68
2023-04-14T07:32:24.366Z,8.76
2023-04-14T07:35:25.104Z,8.87
2023-04-14T07:38:32.280Z,9.00
2023-04-14T07:41:34.253Z,9.08
2023-04-14T07:44:34.271Z,9.14
2023-04-14T07:47:34.380Z,9.21
2023-04-14T07:50:34.116Z,9.22
2023-04-14T07:53:35.151Z,9.22
2023-04-14T07:56:35.264Z,9.29
2023-04-14T07:59:35.167Z,9.40
2023-04-14T08:02:36.269Z,9.52
2023-04-14T08:05:36.213Z,9.58
2023-04-14T08:08:38.218Z,9.58
2023-04-14T08:11:39.330Z,9.61
2023-04-14T08:14:39.380Z,9.67
2023-04-14T08:17:42.382Z,9.75
2023-04-14T08:20:46.571Z,9.87
2023-04-14T08:23:54.158Z,9.93
2023-04-14T08:27:01.610Z,9.98
2023-04-14T08:30:04.263Z,10.12
2023-04-14T08:33:22.615Z,10.17
2023-04-14T08:36:23.283Z,10.18
2023-04-14T08:39:30.183Z,10.21
2023-04-14T08:42:32.220Z,10.12
2023-04-14T08:45:39.249Z,10.05
2023-04-14T08:48:40.774Z,10.05
2023-04-14T08:51:44.321Z,9.99
2023-04-14T08:54:44.243Z,9.98
2023-04-14T08:57:44.322Z,10.07
2023-04-14T09:00:45.299Z,10.26
2023-04-14T09:03:46.425Z,10.60
2023-04-14T09:06:46.284Z,10.97
2023-04-14T09:09:51.350Z,11.31
2023-04-14T09:12:53.283Z,11.46
2023-04-14T09:15:53.282Z,11.55
2023-04-14T09:18:56.354Z,11.64
2023-04-14T09:22:01.430Z,11.56
2023-04-14T09:25:08.324Z,11.45
2023-04-14T09:28:09.284Z,11.24
2023-04-14T09:31:09.383Z,11.02
2023-04-14T09:34:04.681Z,10.90
2023-04-14T09:37:14.338Z,10.83
2023-04-14T09:40:17.359Z,10.75
2023-04-14T09:43:19.335Z,10.67
2023-04-14T09:46:23.365Z,10.67
2023-04-14T09:49:24.374Z,10.70
2023-04-14T09:52:24.365Z,10.77
2023-04-14T09:55:27.376Z,10.82
2023-04-14T09:58:29.975Z,10.83
2023-04-14T10:01:31.376Z,10.81
2023-04-14T10:04:35.484Z,10.69
2023-04-14T10:07:35.396Z,10.57
2023-04-14T10:10:35.361Z,10.49
2023-04-14T10:13:36.363Z,10.41
2023-04-14T10:16:37.440Z,10.34
2023-04-14T10:19:38.406Z,10.29
2023-04-14T10:22:40.842Z,10.24
2023-04-14T10:25:44.118Z,10.22
2023-04-14T10:28:47.517Z,10.16
2023-04-14T10:31:53.541Z,10.14
2023-04-14T10:34:54.411Z,10.15
2023-04-14T10:38:01.440Z,10.17
2023-04-14T10:41:02.560Z,10.16
2023-04-14T10:44:05.549Z,10.12
2023-04-14T10:47:08.830Z,10.12
2023-04-14T10:50:12.458Z,10.15
2023-04-14T10:53:12.556Z,10.18
2023-04-14T10:56:12.443Z,10.22
2023-04-14T10:59:12.519Z,10.30
2023-04-14T11:02:13.546Z,10.37
2023-04-14T11:05:18.561Z,10.40
2023-04-14T11:08:27.809Z,10.48
2023-04-14T11:11:28.534Z,10.56
2023-04-14T11:14:30.693Z,10.60
2023-04-14T11:17:35.698Z,10.66
2023-04-14T11:20:35.511Z,10.70
2023-04-14T11:23:41.556Z,10.73
2023-04-14T11:26:46.522Z,10.78
2023-04-14T11:29:49.515Z,10.86
2023-04-14T11:32:57.610Z,10.98
2023-04-14T11:35:57.613Z,11.02
2023-04-14T11:38:57.547Z,10.99
2023-04-14T11:41:59.545Z,10.93
2023-04-14T11:45:00.547Z,10.99
2023-04-14T11:48:02.544Z,11.11
2023-04-14T11:51:08.682Z,11.22
2023-04-14T11:54:08.712Z,11.22
2023-04-14T11:57:09.555Z,11.25
2023-04-14T12:00:11.644Z,11.38
2023-04-14T12:03:17.970Z,11.41
2023-04-14T12:06:19.606Z,11.42
2023-04-14T12:09:24.606Z,11.40
2023-04-14T12:15:25.666Z,11.14
2023-04-14T12:18:27.616Z,11.02
2023-04-14T12:21:31.604Z,10.89
2023-04-14T12:24:31.615Z,10.85
2023-04-14T12:27:31.608Z,10.90
2023-04-14T12:30:34.649Z,10.98
2023-04-14T12:33:38.679Z,11.02
2023-04-14T12:36:49.648Z,10.97
2023-04-14T12:40:06.708Z,10.96
2023-04-14T12:43:08.640Z,10.89
2023-04-14T12:46:09.705Z,10.84
2023-04-14T12:49:10.727Z,10.80
2023-04-14T12:52:11.669Z,10.78
2023-04-14T12:55:11.922Z,10.75
2023-04-14T12:58:15.707Z,10.77
2023-04-14T13:01:15.753Z,10.73
2023-04-14T13:04:16.720Z,10.73
2023-04-14T13:07:16.685Z,10.76
2023-04-14T13:10:16.657Z,10.79
2023-04-14T13:13:16.682Z,10.81
2023-04-14T13:16:17.846Z,10.83
2023-04-14T13:19:19.713Z,10.85
2023-04-14T13:22:22.746Z,10.86
2023-04-14T13:25:23.756Z,10.89
2023-04-14T13:28:23.795Z,10.89
2023-04-14T13:31:24.773Z,10.89
2023-04-14T13:34:24.715Z,10.89
2023-04-14T13:37:25.774Z,10.87
2023-04-14T13:40:26.797Z,10.84
2023-04-14T13:43:28.778Z,10.79
2023-04-14T13:46:30.670Z,10.74
2023-04-14T13:49:32.742Z,10.70
2023-04-14T13:52:34.229Z,10.73
2023-04-14T13:55:34.821Z,10.76
2023-04-14T13:58:35.808Z,10.81
2023-04-14T14:01:37.802Z,10.82
2023-04-14T14:04:38.857Z,10.74
2023-04-14T14:07:38.787Z,10.63
2023-04-14T14:10:40.824Z,10.56
2023-04-14T14:13:40.808Z,10.54
2023-04-14T14:16:40.884Z,10.55
2023-04-14T14:19:40.881Z,10.59
2023-04-14T14:22:40.821Z,10.59
2023-04-14T14:25:44.835Z,10.54
2023-04-14T14:28:46.898Z,10.52
2023-04-14T14:31:47.085Z,10.49
2023-04-14T14:34:46.846Z,10.45
2023-04-14T14:37:47.822Z,10.43
2023-04-14T14:40:51.870Z,10.39
2023-04-14T14:43:51.868Z,10.37
2023-04-14T14:46:58.971Z,10.39
2023-04-14T14:50:05.084Z,10.42
2023-04-14T14:53:09.828Z,10.38
2023-04-14T14:56:09.845Z,10.33
2023-04-14T14:59:09.893Z,10.29
2023-04-14T15:02:09.899Z,10.24
2023-04-14T15:05:09.817Z,10.17
2023-04-14T15:08:09.889Z,10.10
2023-04-14T15:11:10.859Z,10.07
2023-04-14T15:14:10.906Z,10.00
2023-04-14T15:17:10.948Z,9.91
2023-04-14T15:20:11.927Z,9.83
2023-04-14T15:23:13.050Z,9.76
2023-04-14T15:26:12.945Z,9.69
2023-04-14T15:29:14.978Z,9.64
2023-04-14T15:32:15.150Z,9.61
2023-04-14T15:35:14.993Z,9.62
2023-04-14T15:38:18.035Z,9.58
2023-04-14T15:41:18.096Z,9.55
2023-04-14T15:44:18.001Z,9.53
2023-04-14T15:47:18.211Z,9.54
2023-04-14T15:50:25.006Z,9.55
2023-04-14T15:53:24.975Z,9.50
2023-04-14T15:56:29.022Z,9.44
2023-04-14T15:59:30.965Z,9.39
2023-04-14T16:02:31.183Z,9.35
2023-04-14T16:05:36.043Z,9.36
2023-04-14T16:08:36.031Z,9.33
2023-04-14T16:11:36.053Z,9.32
2023-04-14T16:14:45.080Z,9.31
2023-04-14T16:17:45.047Z,9.32
2023-04-14T16:20:45.040Z,9.30
2023-04-14T16:23:47.084Z,9.30
2023-04-14T16:26:47.067Z,9.29
2023-04-14T16:29:53.090Z,9.27
2023-04-14T16:32:55.141Z,9.24
2023-04-14T16:35:55.052Z,9.22
2023-04-14T16:38:57.128Z,9.20
2023-04-14T16:42:08.143Z,9.20
2023-04-14T16:45:10.075Z,9.18
2023-04-14T16:48:10.138Z,9.16
2023-04-14T16:51:16.138Z,9.13
2023-04-14T16:54:18.246Z,9.10
2023-04-14T16:57:18.127Z,9.07
2023-04-14T17:00:20.265Z,9.03
2023-04-14T17:03:21.265Z,9.01
2023-04-14T17:06:21.130Z,9.02
2023-04-14T17:09:21.089Z,9.00
2023-04-14T17:12:21.214Z,8.99
2023-04-14T17:15:21.148Z,8.98
2023-04-14T17:18:34.378Z,8.97
2023-04-14T17:21:44.326Z,8.94
2023-04-14T17:24:47.613Z,8.92
2023-04-14T17:27:51.160Z,8.92
2023-04-14T17:30:52.185Z,8.92
2023-04-14T17:33:57.178Z,8.89
2023-04-14T17:36:57.156Z,8.86
2023-04-14T17:39:58.232Z,8.83
2023-04-14T17:42:59.149Z,8.82
2023-04-14T17:45:59.297Z,8.80
2023-04-14T17:48:59.200Z,8.81
2023-04-14T17:52:19.196Z,8.77
2023-04-14T17:55:20.189Z,8.75
2023-04-14T17:58:35.228Z,8.74
2023-04-14T18:01:36.387Z,8.74
2023-04-14T18:04:36.260Z,8.73
2023-04-14T18:07:37.226Z,8.71
2023-04-14T18:10:37.508Z,8.71
2023-04-14T18:13:37.477Z,8.70
2023-04-14T18:16:39.296Z,8.70
2023-04-14T18:19:48.949Z,8.70
2023-04-14T18:22:50.273Z,8.70
2023-04-14T18:28:56.250Z,8.70
2023-04-14T18:31:56.273Z,8.69
2023-04-14T18:34:58.421Z,8.68
2023-04-14T18:37:59.282Z,8.65
2023-04-14T18:41:03.238Z,8.63
2023-04-14T18:44:11.322Z,8.58
2023-04-14T18:47:11.269Z,8.58
2023-04-14T18:50:15.257Z,8.56
2023-04-14T18:53:15.832Z,8.56
2023-04-14T18:56:18.360Z,8.54
2023-04-14T18:59:24.300Z,8.52
2023-04-14T19:02:25.440Z,8.51
2023-04-14T19:05:26.389Z,8.47
2023-04-14T19:08:26.341Z,8.42
2023-04-14T19:11:28.601Z,8.34
2023-04-14T19:14:29.330Z,8.28
2023-04-14T19:17:29.361Z,8.23
2023-04-14T19:20:30.321Z,8.19
2023-04-14T19:23:30.346Z,8.15
2023-04-14T19:26:30.522Z,8.10
2023-04-14T19:29:30.403Z,8.04
2023-04-14T19:32:36.233Z,7.99
2023-04-14T19:35:37.419Z,7.94
2023-04-14T19:38:38.343Z,7.91
2023-04-14T19:41:38.405Z,7.85
2023-04-14T19:44:41.407Z,7.81
2023-04-14T19:47:41.386Z,7.76
2023-04-14T19:50:42.372Z,7.72
2023-04-14T19:53:42.379Z,7.70
2023-04-14T19:56:42.413Z,7.72
2023-04-14T19:59:50.380Z,7.72
2023-04-14T20:02:56.326Z,7.73
2023-04-14T20:05:57.669Z,7.76
2023-04-14T20:08:57.404Z,7.79
2023-04-14T20:11:58.442Z,7.80
2023-04-14T20:15:00.551Z,7.83
2023-04-14T20:18:01.589Z,7.84
2023-04-14T20:21:01.462Z,7.85
2023-04-14T20:24:01.502Z,7.87
2023-04-14T20:27:01.502Z,7.90
2023-04-14T20:30:01.501Z,7.92
2023-04-14T20:33:01.487Z,7.94
2023-04-14T20:36:02.498Z,7.96
2023-04-14T20:39:02.742Z,7.98
2023-04-14T20:42:04.469Z,7.97
2023-04-14T20:45:04.498Z,7.96
2023-04-14T20:48:13.475Z,7.96
2023-04-14T20:51:13.568Z,7.96
2023-04-14T20:54:13.509Z,7.99
2023-04-14T20:57:13.488Z,7.97
2023-04-14T21:00:16.661Z,7.94
2023-04-14T21:03:17.607Z,7.91
2023-04-14T21:06:18.528Z,7.89
2023-04-14T21:09:18.523Z,7.89
2023-04-14T21:12:22.693Z,7.89
2023-04-14T21:15:48.662Z,7.89
2023-04-14T21:18:45.522Z,7.88
2023-04-14T21:21:48.569Z,7.88
2023-04-14T21:24:55.542Z,7.88
2023-04-14T21:27:55.541Z,7.87
2023-04-14T21:31:01.549Z,7.85
2023-04-14T21:34:01.639Z,7.81
2023-04-14T21:37:02.564Z,7.78
2023-04-14T21:40:02.603Z,7.75
2023-04-14T21:43:05.608Z,7.71
2023-04-14T21:46:06.673Z,7.69
2023-04-14T21:49:07.810Z,7.66
2023-04-14T21:52:07.636Z,7.61
2023-04-14T21:55:07.615Z,7.56
2023-04-14T21:58:07.679Z,7.52
2023-04-14T22:01:08.713Z,7.48
2023-04-14T22:04:11.461Z,7.45
2023-04-14T22:07:14.699Z,7.42
2023-04-14T22:10:15.622Z,7.40
2023-04-14T22:13:15.637Z,7.39
2023-04-14T22:16:16.789Z,7.38
2023-04-14T22:19:18.662Z,7.35
2023-04-14T22:22:19.655Z,7.37
2023-04-14T22:25:25.704Z,7.37
2023-04-14T22:28:26.621Z,7.36
2023-04-14T22:31:26.802Z,7.33
2023-04-14T22:34:26.720Z,7.30
2023-04-14T22:37:26.684Z,7.28
2023-04-14T22:40:27.682Z,7.25
2023-04-14T22:43:21.657Z,7.25
2023-04-14T22:46:21.747Z,7.25
2023-04-14T22:49:21.691Z,7.24
2023-04-14T22:52:21.715Z,7.21
2023-04-14T22:55:24.746Z,7.17
2023-04-14T22:58:25.713Z,7.16
2023-04-14T23:01:27.826Z,7.14
2023-04-14T23:04:28.814Z,7.12
2023-04-14T23:07:28.762Z,7.12
2023-04-14T23:10:28.777Z,7.10
2023-04-14T23:13:28.764Z,7.06
2023-04-14T23:16:32.753Z,7.03
2023-04-14T23:19:32.722Z,7.03
2023-04-14T23:22:32.791Z,7.01
2023-04-14T23:25:37.749Z,6.99
2023-04-14T23:28:40.802Z,7.00
2023-04-14T23:31:40.850Z,6.98
2023-04-14T23:34:40.759Z,6.96
2023-04-14T23:37:40.803Z,6.93
2023-04-14T23:40:40.789Z,6.91
2023-04-14T23:43:40.807Z,6.89
2023-04-14T23:46:40.868Z,6.88
2023-04-14T23:49:41.809Z,6.87
2023-04-14T23:52:41.815Z,6.87
2023-04-14T23:55:41.806Z,6.85
2023-04-14T23:58:44.794Z,6.81
